createdAt,value
2018-04-02T00:00:07.243Z,-52.00
2018-04-02T00:01:07.216Z,-52.00
2018-04-02T00:02:07.189Z,-52.00
2018-04-02T00:03:07.163Z,-51.00
2018-04-02T00:04:07.157Z,-52.00
2018-04-02T00:05:07.108Z,-52.00
2018-04-02T00:06:07.081Z,-52.00
2018-04-02T00:07:07.061Z,-52.00
2018-04-02T00:08:07.038Z,-52.00
2018-04-02T00:09:06.993Z,-52.00
2018-04-02T00:10:06.971Z,-52.00
2018-04-02T00:11:06.958Z,-52.00
2018-04-02T00:12:06.919Z,-53.00
2018-04-02T00:13:06.891Z,-52.00
2018-04-02T00:14:06.866Z,-52.00
2018-04-02T00:15:06.836Z,-52.00
2018-04-02T00:16:06.806Z,-52.00
2018-04-02T00:17:06.783Z,-52.00
2018-04-02T00:18:06.760Z,-53.00
2018-04-02T00:19:06.725Z,-52.00
2018-04-02T00:20:06.709Z,-52.00
2018-04-02T00:21:06.671Z,-53.00
2018-04-02T00:22:06.643Z,-53.00
2018-04-02T00:23:06.618Z,-52.00
2018-04-02T00:24:06.586Z,-52.00
2018-04-02T00:25:06.571Z,-53.00
2018-04-02T00:26:06.537Z,-52.00
2018-04-02T00:27:06.507Z,-52.00
2018-04-02T00:28:06.480Z,-52.00
2018-04-02T00:29:06.453Z,-52.00
2018-04-02T00:30:06.425Z,-52.00
2018-04-02T00:31:06.402Z,-52.00
2018-04-02T00:32:06.371Z,-52.00
2018-04-02T00:33:06.340Z,-52.00
2018-04-02T00:34:06.316Z,-52.00
2018-04-02T00:35:06.290Z,-52.00
2018-04-02T00:36:06.265Z,-52.00
2018-04-02T00:37:06.234Z,-52.00
2018-04-02T00:38:06.209Z,-52.00
2018-04-02T00:39:06.180Z,-52.00
2018-04-02T00:40:06.154Z,-52.00
2018-04-02T00:41:06.122Z,-52.00
2018-04-02T00:42:06.105Z,-52.00
2018-04-02T00:43:06.071Z,-52.00
2018-04-02T00:44:06.041Z,-53.00
2018-04-02T00:45:06.022Z,-52.00
2018-04-02T00:46:05.985Z,-52.00
2018-04-02T00:47:05.959Z,-52.00
2018-04-02T00:48:05.941Z,-52.00
2018-04-02T00:49:05.910Z,-52.00
2018-04-02T00:50:05.877Z,-52.00
2018-04-02T00:51:05.857Z,-52.00
2018-04-02T00:52:05.831Z,-52.00
2018-04-02T00:53:05.795Z,-52.00
2018-04-02T00:54:05.800Z,-52.00
2018-04-02T00:55:05.743Z,-52.00
2018-04-02T00:56:05.715Z,-52.00
2018-04-02T00:57:05.690Z,-52.00
2018-04-02T00:58:05.662Z,-52.00
2018-04-02T00:59:05.630Z,-53.00
2018-04-02T01:00:05.607Z,-52.00
2018-04-02T01:01:05.580Z,-53.00
2018-04-02T01:02:05.548Z,-52.00
2018-04-02T01:03:05.528Z,-52.00
2018-04-02T01:04:05.501Z,-52.00
2018-04-02T01:05:05.468Z,-52.00
2018-04-02T01:06:05.444Z,-52.00
2018-04-02T01:07:05.419Z,-52.00
2018-04-02T01:08:05.393Z,-52.00
2018-04-02T01:09:05.359Z,-52.00
2018-04-02T01:10:05.337Z,-52.00
2018-04-02T01:11:05.326Z,-52.00
2018-04-02T01:12:05.279Z,-53.00
2018-04-02T01:13:05.253Z,-53.00
2018-04-02T01:14:05.225Z,-52.00
2018-04-02T01:15:05.198Z,-52.00
2018-04-02T01:16:05.172Z,-52.00
2018-04-02T01:17:05.144Z,-52.00
2018-04-02T01:18:05.127Z,-52.00
2018-04-02T01:19:05.090Z,-52.00
2018-04-02T01:20:05.061Z,-53.00
2018-04-02T01:21:05.033Z,-52.00
2018-04-02T01:22:05.009Z,-52.00
2018-04-02T01:23:04.981Z,-52.00
2018-04-02T01:24:04.947Z,-52.00
2018-04-02T01:25:04.929Z,-52.00
2018-04-02T01:26:04.902Z,-52.00
2018-04-02T01:27:04.871Z,-52.00
2018-04-02T01:28:04.841Z,-52.00
2018-04-02T01:29:04.814Z,-52.00
2018-04-02T01:30:04.788Z,-52.00
2018-04-02T01:31:04.759Z,-52.00
2018-04-02T01:32:04.737Z,-52.00
2018-04-02T01:33:04.704Z,-52.00
2018-04-02T01:34:04.686Z,-52.00
2018-04-02T01:35:04.671Z,-52.00
2018-04-02T01:36:04.625Z,-52.00
2018-04-02T01:37:04.596Z,-52.00
2018-04-02T01:38:04.575Z,-52.00
2018-04-02T01:39:04.541Z,-52.00
2018-04-02T01:40:04.520Z,-52.00
2018-04-02T01:41:04.484Z,-52.00
2018-04-02T01:42:04.458Z,-52.00
2018-04-02T01:43:04.432Z,-52.00
2018-04-02T01:44:04.413Z,-52.00
2018-04-02T01:45:04.374Z,-52.00
2018-04-02T01:46:04.355Z,-52.00
2018-04-02T01:47:04.333Z,-52.00
2018-04-02T01:48:04.294Z,-52.00
2018-04-02T01:49:04.268Z,-52.00
2018-04-02T01:50:04.252Z,-52.00
2018-04-02T01:51:04.220Z,-52.00
2018-04-02T01:52:04.188Z,-52.00
2018-04-02T01:53:04.154Z,-52.00
2018-04-02T01:54:04.128Z,-52.00
2018-04-02T01:55:04.102Z,-52.00
2018-04-02T01:56:04.085Z,-52.00
2018-04-02T01:57:04.044Z,-52.00
2018-04-02T01:58:04.018Z,-52.00
2018-04-02T01:59:04.007Z,-52.00
2018-04-02T02:00:03.967Z,-52.00
2018-04-02T02:01:03.938Z,-52.00
2018-04-02T02:02:03.917Z,-52.00
2018-04-02T02:03:03.936Z,-52.00
2018-04-02T02:04:03.861Z,-52.00
2018-04-02T02:05:03.835Z,-52.00
2018-04-02T02:06:03.803Z,-52.00
2018-04-02T02:07:03.773Z,-52.00
2018-04-02T02:08:03.749Z,-51.00
2018-04-02T02:09:03.717Z,-52.00
2018-04-02T02:10:03.689Z,-52.00
2018-04-02T02:11:03.668Z,-52.00
2018-04-02T02:12:03.638Z,-52.00
2018-04-02T02:13:03.626Z,-52.00
2018-04-02T02:14:03.584Z,-52.00
2018-04-02T02:15:03.556Z,-52.00
2018-04-02T02:16:03.536Z,-52.00
2018-04-02T02:17:03.505Z,-52.00
2018-04-02T02:18:03.469Z,-52.00
2018-04-02T02:19:03.443Z,-52.00
2018-04-02T02:20:03.421Z,-52.00
2018-04-02T02:21:03.386Z,-52.00
2018-04-02T02:22:03.356Z,-52.00
2018-04-02T02:23:03.335Z,-52.00
2018-04-02T02:24:03.328Z,-52.00
2018-04-02T02:25:03.278Z,-52.00
2018-04-02T02:26:03.253Z,-52.00
2018-04-02T02:27:03.230Z,-52.00
2018-04-02T02:28:03.196Z,-52.00
2018-04-02T02:29:03.165Z,-52.00
2018-04-02T02:30:03.140Z,-52.00
2018-04-02T02:31:03.114Z,-52.00
2018-04-02T02:32:03.102Z,-52.00
2018-04-02T02:33:03.064Z,-52.00
2018-04-02T02:34:03.029Z,-52.00
2018-04-02T02:35:03.040Z,-52.00
2018-04-02T02:36:02.975Z,-52.00
2018-04-02T02:37:02.951Z,-52.00
2018-04-02T02:38:02.921Z,-52.00
2018-04-02T02:39:02.890Z,-52.00
2018-04-02T02:40:02.862Z,-52.00
2018-04-02T02:41:02.842Z,-52.00
2018-04-02T02:42:02.810Z,-52.00
2018-04-02T02:43:02.789Z,-52.00
2018-04-02T02:44:02.759Z,-52.00
2018-04-02T02:45:02.728Z,-52.00
2018-04-02T02:46:02.700Z,-52.00
2018-04-02T02:47:02.679Z,-52.00
2018-04-02T02:48:02.649Z,-52.00
2018-04-02T02:49:02.617Z,-52.00
2018-04-02T02:50:02.595Z,-52.00
2018-04-02T02:51:02.566Z,-52.00
2018-04-02T02:52:02.537Z,-52.00
2018-04-02T02:53:02.506Z,-52.00
2018-04-02T02:54:02.479Z,-52.00
2018-04-02T02:55:02.458Z,-52.00
2018-04-02T02:56:02.429Z,-52.00
2018-04-02T02:57:02.391Z,-52.00
2018-04-02T02:58:02.370Z,-52.00
2018-04-02T02:59:02.341Z,-52.00
2018-04-02T03:00:02.335Z,-52.00
2018-04-02T03:01:02.292Z,-52.00
2018-04-02T03:02:02.257Z,-52.00
2018-04-02T03:03:02.240Z,-52.00
2018-04-02T03:04:02.202Z,-52.00
2018-04-02T03:05:02.180Z,-52.00
2018-04-02T03:06:02.147Z,-52.00
2018-04-02T03:07:02.121Z,-52.00
2018-04-02T03:08:02.093Z,-52.00
2018-04-02T03:09:02.075Z,-52.00
2018-04-02T03:10:02.037Z,-52.00
2018-04-02T03:11:02.010Z,-52.00
2018-04-02T03:12:01.986Z,-52.00
2018-04-02T03:13:01.956Z,-52.00
2018-04-02T03:14:01.930Z,-52.00
2018-04-02T03:15:01.911Z,-52.00
2018-04-02T03:16:01.871Z,-52.00
2018-04-02T03:17:01.854Z,-52.00
2018-04-02T03:18:01.813Z,-52.00
2018-04-02T03:19:01.791Z,-52.00
2018-04-02T03:20:01.766Z,-52.00
2018-04-02T03:21:01.729Z,-52.00
2018-04-02T03:22:01.706Z,-52.00
2018-04-02T03:23:01.680Z,-52.00
2018-04-02T03:24:01.651Z,-52.00
2018-04-02T03:25:01.622Z,-52.00
2018-04-02T03:26:01.604Z,-51.00
2018-04-02T03:27:01.567Z,-52.00
2018-04-02T03:28:01.540Z,-52.00
2018-04-02T03:29:01.517Z,-52.00
2018-04-02T03:30:01.482Z,-52.00
2018-04-02T03:31:01.465Z,-52.00
2018-04-02T03:32:01.436Z,-52.00
2018-04-02T03:33:01.411Z,-52.00
2018-04-02T03:34:01.374Z,-52.00
2018-04-02T03:35:01.354Z,-52.00
2018-04-02T03:36:01.333Z,-52.00
2018-04-02T03:37:01.319Z,-52.00
2018-04-02T03:38:01.272Z,-52.00
2018-04-02T03:39:01.231Z,-52.00
2018-04-02T03:40:01.222Z,-52.00
2018-04-02T03:41:01.188Z,-52.00
2018-04-02T03:42:01.151Z,-52.00
2018-04-02T03:43:01.132Z,-52.00
2018-04-02T03:44:01.102Z,-53.00
2018-04-02T03:45:01.069Z,-52.00
2018-04-02T03:46:01.040Z,-52.00
2018-04-02T03:47:01.020Z,-52.00
2018-04-02T03:48:00.985Z,-52.00
2018-04-02T03:49:00.957Z,-52.00
2018-04-02T03:50:00.947Z,-52.00
2018-04-02T03:51:00.902Z,-52.00
2018-04-02T03:52:00.887Z,-52.00
2018-04-02T03:53:00.858Z,-52.00
2018-04-02T03:54:00.818Z,-52.00
2018-04-02T03:55:00.797Z,-52.00
2018-04-02T03:56:00.769Z,-52.00
2018-04-02T03:57:00.746Z,-52.00
2018-04-02T03:58:00.715Z,-52.00
2018-04-02T03:59:00.684Z,-52.00
2018-04-02T04:00:00.656Z,-52.00
2018-04-02T04:01:00.629Z,-52.00
2018-04-02T04:02:00.601Z,-52.00
2018-04-02T04:03:00.573Z,-52.00
2018-04-02T04:04:00.541Z,-52.00
2018-04-02T04:05:00.521Z,-52.00
2018-04-02T04:06:00.493Z,-52.00
2018-04-02T04:07:00.458Z,-52.00
2018-04-02T04:08:00.437Z,-52.00
2018-04-02T04:09:00.408Z,-52.00
2018-04-02T04:10:00.373Z,-52.00
2018-04-02T04:11:00.351Z,-52.00
2018-04-02T04:12:00.324Z,-52.00
2018-04-02T04:13:00.288Z,-52.00
2018-04-02T04:14:00.265Z,-53.00
2018-04-02T04:15:00.238Z,-53.00
2018-04-02T04:16:00.208Z,-52.00
2018-04-02T04:17:00.186Z,-52.00
2018-04-02T04:18:00.151Z,-52.00
2018-04-02T04:19:00.131Z,-52.00
2018-04-02T04:20:00.103Z,-52.00
2018-04-02T04:21:00.126Z,-52.00
2018-04-02T04:22:00.040Z,-52.00
2018-04-02T04:23:00.008Z,-52.00
2018-04-02T04:23:59.998Z,-52.00
2018-04-02T04:24:59.962Z,-52.00
2018-04-02T04:25:59.931Z,-52.00
2018-04-02T04:26:59.919Z,-52.00
2018-04-02T04:27:59.870Z,-52.00
2018-04-02T04:28:59.849Z,-52.00
2018-04-02T04:29:59.830Z,-52.00
2018-04-02T04:30:59.792Z,-52.00
2018-04-02T04:31:59.767Z,-52.00
2018-04-02T04:32:59.737Z,-52.00
2018-04-02T04:33:59.706Z,-52.00
2018-04-02T04:34:59.677Z,-52.00
2018-04-02T04:35:59.655Z,-52.00
2018-04-02T04:36:59.628Z,-52.00
2018-04-02T04:37:59.598Z,-52.00
2018-04-02T04:38:59.571Z,-52.00
2018-04-02T04:39:59.538Z,-52.00
2018-04-02T04:40:59.509Z,-52.00
2018-04-02T04:41:59.500Z,-52.00
2018-04-02T04:42:59.497Z,-52.00
2018-04-02T04:43:59.467Z,-52.00
2018-04-02T04:44:59.400Z,-52.00
2018-04-02T04:45:59.372Z,-52.00
2018-04-02T04:46:59.343Z,-52.00
2018-04-02T04:47:59.314Z,-52.00
2018-04-02T04:48:59.297Z,-52.00
2018-04-02T04:49:59.262Z,-53.00
2018-04-02T04:50:59.231Z,-52.00
2018-04-02T04:51:59.206Z,-52.00
2018-04-02T04:52:59.177Z,-52.00
2018-04-02T04:53:59.160Z,-52.00
2018-04-02T04:54:59.122Z,-52.00
2018-04-02T04:55:59.112Z,-52.00
2018-04-02T04:56:59.066Z,-52.00
2018-04-02T04:57:59.037Z,-52.00
2018-04-02T04:58:59.013Z,-52.00
2018-04-02T04:59:58.984Z,-52.00
2018-04-02T05:00:58.966Z,-52.00
2018-04-02T05:01:58.954Z,-52.00
2018-04-02T05:02:58.908Z,-52.00
2018-04-02T05:03:58.870Z,-52.00
2018-04-02T05:04:58.859Z,-52.00
2018-04-02T05:05:58.817Z,-52.00
2018-04-02T05:06:58.790Z,-52.00
2018-04-02T05:07:58.769Z,-52.00
2018-04-02T05:08:58.732Z,-52.00
2018-04-02T05:09:58.707Z,-53.00
2018-04-02T05:10:58.681Z,-52.00
2018-04-02T05:11:58.651Z,-52.00
2018-04-02T05:12:58.621Z,-52.00
2018-04-02T05:13:58.593Z,-52.00
2018-04-02T05:14:58.564Z,-52.00
2018-04-02T05:15:58.539Z,-52.00
2018-04-02T05:16:58.513Z,-52.00
2018-04-02T05:17:58.483Z,-52.00
2018-04-02T05:18:58.453Z,-52.00
2018-04-02T05:19:58.424Z,-52.00
2018-04-02T05:20:58.398Z,-52.00
2018-04-02T05:21:58.376Z,-52.00
2018-04-02T05:22:58.343Z,-52.00
2018-04-02T05:23:58.330Z,-52.00
2018-04-02T05:24:58.287Z,-52.00
2018-04-02T05:25:58.258Z,-52.00
2018-04-02T05:26:58.231Z,-52.00
2018-04-02T05:27:58.206Z,-52.00
2018-04-02T05:28:58.177Z,-50.00
2018-04-02T05:29:58.147Z,-52.00
2018-04-02T05:30:58.183Z,-52.00
2018-04-02T05:31:58.091Z,-52.00
2018-04-02T05:32:58.068Z,-52.00
2018-04-02T05:33:58.035Z,-52.00
2018-04-02T05:34:58.009Z,-52.00
2018-04-02T05:35:57.985Z,-52.00
2018-04-02T05:36:57.950Z,-52.00
2018-04-02T05:37:57.925Z,-52.00
2018-04-02T05:38:57.900Z,-52.00
2018-04-02T05:39:57.867Z,-52.00
2018-04-02T05:40:57.842Z,-52.00
2018-04-02T05:41:57.816Z,-52.00
2018-04-02T05:42:57.786Z,-53.00
2018-04-02T05:43:57.758Z,-52.00
2018-04-02T05:44:57.730Z,-52.00
2018-04-02T05:45:57.700Z,-52.00
2018-04-02T05:46:57.673Z,-52.00
2018-04-02T05:47:57.654Z,-52.00
2018-04-02T05:48:57.620Z,-52.00
2018-04-02T05:49:57.589Z,-52.00
2018-04-02T05:50:57.567Z,-52.00
2018-04-02T05:51:57.554Z,-52.00
2018-04-02T05:52:57.504Z,-52.00
2018-04-02T05:53:57.480Z,-52.00
2018-04-02T05:54:57.452Z,-52.00
2018-04-02T05:55:57.419Z,-52.00
2018-04-02T05:56:57.393Z,-52.00
2018-04-02T05:57:57.369Z,-52.00
2018-04-02T05:58:57.345Z,-52.00
2018-04-02T05:59:57.308Z,-52.00
2018-04-02T06:00:57.281Z,-52.00
2018-04-02T06:01:57.263Z,-52.00
2018-04-02T06:02:57.235Z,-52.00
2018-04-02T06:03:57.200Z,-52.00
2018-04-02T06:04:57.174Z,-52.00
2018-04-02T06:05:57.163Z,-52.00
2018-04-02T06:06:57.113Z,-52.00
2018-04-02T06:07:57.087Z,-52.00
2018-04-02T06:08:57.064Z,-52.00
2018-04-02T06:09:57.032Z,-52.00
2018-04-02T06:10:57.003Z,-52.00
2018-04-02T06:11:56.979Z,-52.00
2018-04-02T06:12:56.957Z,-52.00
2018-04-02T06:13:56.926Z,-52.00
2018-04-02T06:14:56.892Z,-52.00
2018-04-02T06:15:56.886Z,-52.00
2018-04-02T06:16:56.845Z,-52.00
2018-04-02T06:17:56.819Z,-52.00
2018-04-02T06:18:56.784Z,-52.00
2018-04-02T06:19:56.757Z,-52.00
2018-04-02T06:20:56.729Z,-52.00
2018-04-02T06:21:56.753Z,-52.00
2018-04-02T06:22:56.693Z,-52.00
2018-04-02T06:23:56.665Z,-52.00
2018-04-02T06:24:56.619Z,-52.00
2018-04-02T06:25:56.595Z,-52.00
2018-04-02T06:26:56.568Z,-52.00
2018-04-02T06:27:56.538Z,-52.00
2018-04-02T06:28:56.512Z,-52.00
2018-04-02T06:29:56.505Z,-52.00
2018-04-02T06:30:56.472Z,-52.00
2018-04-02T06:31:56.430Z,-52.00
2018-04-02T06:32:56.403Z,-52.00
2018-04-02T06:33:56.384Z,-52.00
2018-04-02T06:34:56.346Z,-52.00
2018-04-02T06:35:56.322Z,-52.00
2018-04-02T06:36:56.313Z,-52.00
2018-04-02T06:37:56.267Z,-52.00
2018-04-02T06:38:56.238Z,-52.00
2018-04-02T06:39:56.222Z,-52.00
2018-04-02T06:40:56.217Z,-52.00
2018-04-02T06:41:56.157Z,-52.00
2018-04-02T06:42:56.140Z,-52.00
2018-04-02T06:43:56.104Z,-52.00
2018-04-02T06:44:56.079Z,-52.00
2018-04-02T06:45:56.054Z,-52.00
2018-04-02T06:46:56.034Z,-52.00
2018-04-02T06:47:55.997Z,-51.00
2018-04-02T06:48:55.971Z,-52.00
2018-04-02T06:49:55.947Z,-52.00
2018-04-02T06:50:55.916Z,-52.00
2018-04-02T06:51:55.891Z,-52.00
2018-04-02T06:52:55.918Z,-52.00
2018-04-02T06:53:55.834Z,-52.00
2018-04-02T06:54:55.810Z,-52.00
2018-04-02T06:55:55.789Z,-52.00
2018-04-02T06:56:55.758Z,-51.00
2018-04-02T06:57:55.749Z,-52.00
2018-04-02T06:58:55.704Z,-52.00
2018-04-02T06:59:55.674Z,-52.00
2018-04-02T07:00:55.645Z,-51.00
2018-04-02T07:01:55.619Z,-52.00
2018-04-02T07:02:55.591Z,-52.00
2018-04-02T07:03:55.568Z,-52.00
2018-04-02T07:04:55.539Z,-52.00
2018-04-02T07:05:55.514Z,-52.00
2018-04-02T07:06:55.495Z,-52.00
2018-04-02T07:07:55.460Z,-52.00
2018-04-02T07:08:55.438Z,-52.00
2018-04-02T07:09:55.408Z,-52.00
2018-04-02T07:10:55.386Z,-52.00
2018-04-02T07:11:55.360Z,-52.00
2018-04-02T07:12:55.326Z,-52.00
2018-04-02T07:13:55.296Z,-52.00
2018-04-02T07:14:55.277Z,-52.00
2018-04-02T07:15:55.258Z,-52.00
2018-04-02T07:16:55.222Z,-52.00
2018-04-02T07:17:55.210Z,-52.00
2018-04-02T07:18:55.168Z,-52.00
2018-04-02T07:19:55.137Z,-52.00
2018-04-02T07:20:55.118Z,-52.00
2018-04-02T07:21:55.085Z,-52.00
2018-04-02T07:22:55.070Z,-52.00
2018-04-02T07:23:55.046Z,-52.00
2018-04-02T07:24:55.023Z,-52.00
2018-04-02T07:25:54.987Z,-52.00
2018-04-02T07:26:54.959Z,-52.00
2018-04-02T07:27:54.940Z,-52.00
2018-04-02T07:28:54.915Z,-51.00
2018-04-02T07:29:54.898Z,-53.00
2018-04-02T07:30:54.857Z,-50.00
2018-04-02T07:31:54.825Z,-52.00
2018-04-02T07:32:54.801Z,-55.00
2018-04-02T07:33:54.768Z,-49.00
2018-04-02T07:34:54.792Z,-53.00
2018-04-02T07:35:54.715Z,-49.00
2018-04-02T07:36:54.688Z,-47.00
2018-04-02T07:37:54.665Z,-48.00
2018-04-02T07:38:54.639Z,-49.00
2018-04-02T07:39:54.613Z,-49.00
2018-04-02T07:40:54.586Z,-49.00
2018-04-02T07:41:54.555Z,-50.00
2018-04-02T07:42:54.550Z,-49.00
2018-04-02T07:43:54.509Z,-48.00
2018-04-02T07:44:54.478Z,-49.00
2018-04-02T07:45:54.467Z,-48.00
2018-04-02T07:46:54.428Z,-49.00
2018-04-02T07:47:54.399Z,-53.00
2018-04-02T07:48:54.389Z,-51.00
2018-04-02T07:49:54.354Z,-50.00
2018-04-02T07:50:54.367Z,-48.00
2018-04-02T07:51:54.305Z,-50.00
2018-04-02T07:52:54.279Z,-50.00
2018-04-02T07:53:54.248Z,-53.00
2018-04-02T07:54:54.229Z,-57.00
2018-04-02T07:55:54.194Z,-49.00
2018-04-02T07:56:54.166Z,-49.00
2018-04-02T07:57:54.139Z,-51.00
2018-04-02T07:58:54.113Z,-52.00
2018-04-02T07:59:54.093Z,-51.00
2018-04-02T08:00:54.059Z,-51.00
2018-04-02T08:01:54.034Z,-51.00
2018-04-02T08:02:54.061Z,-51.00
2018-04-02T08:03:53.980Z,-52.00
2018-04-02T08:04:53.953Z,-51.00
2018-04-02T08:05:53.943Z,-51.00
2018-04-02T08:06:53.899Z,-50.00
2018-04-02T08:07:53.885Z,-52.00
2018-04-02T08:08:53.851Z,-50.00
2018-04-02T08:09:53.818Z,-58.00
2018-04-02T08:10:53.799Z,-51.00
2018-04-02T08:11:53.780Z,-52.00
2018-04-02T08:12:53.744Z,-52.00
2018-04-02T08:13:53.717Z,-51.00
2018-04-02T08:14:53.706Z,-55.00
2018-04-02T08:15:53.722Z,-53.00
2018-04-02T08:16:53.644Z,-51.00
2018-04-02T08:17:53.634Z,-50.00
2018-04-02T08:18:53.616Z,-52.00
2018-04-02T08:19:53.561Z,-50.00
2018-04-02T08:20:53.544Z,-51.00
2018-04-02T08:21:53.518Z,-50.00
2018-04-02T08:22:53.484Z,-49.00
2018-04-02T08:23:53.457Z,-51.00
2018-04-02T08:24:53.438Z,-50.00
2018-04-02T08:25:53.405Z,-51.00
2018-04-02T08:26:53.378Z,-52.00
2018-04-02T08:27:53.354Z,-52.00
2018-04-02T08:28:53.330Z,-48.00
2018-04-02T08:29:53.309Z,-48.00
2018-04-02T08:30:53.281Z,-49.00
2018-04-02T08:31:53.249Z,-48.00
2018-04-02T08:32:53.226Z,-48.00
2018-04-02T08:33:53.199Z,-48.00
2018-04-02T08:34:53.166Z,-48.00
2018-04-02T08:35:53.159Z,-49.00
2018-04-02T08:36:53.125Z,-49.00
2018-04-02T08:37:53.109Z,-49.00
2018-04-02T08:38:53.079Z,-49.00
2018-04-02T08:39:53.041Z,-49.00
2018-04-02T08:40:53.021Z,-49.00
2018-04-02T08:41:52.991Z,-48.00
2018-04-02T08:42:52.966Z,-49.00
2018-04-02T08:43:52.939Z,-48.00
2018-04-02T08:44:52.920Z,-49.00
2018-04-02T08:45:52.889Z,-48.00
2018-04-02T08:46:52.859Z,-48.00
2018-04-02T08:47:52.838Z,-49.00
2018-04-02T08:48:52.807Z,-48.00
2018-04-02T08:49:52.783Z,-49.00
2018-04-02T08:50:52.758Z,-49.00
2018-04-02T08:51:52.736Z,-49.00
2018-04-02T08:52:52.707Z,-49.00
2018-04-02T08:53:52.676Z,-49.00
2018-04-02T08:54:52.657Z,-49.00
2018-04-02T08:55:52.636Z,-48.00
2018-04-02T08:56:52.605Z,-48.00
2018-04-02T08:57:52.576Z,-49.00
2018-04-02T08:58:52.552Z,-48.00
2018-04-02T08:59:52.531Z,-48.00
2018-04-02T09:00:52.497Z,-49.00
2018-04-02T09:01:52.474Z,-49.00
2018-04-02T09:02:52.450Z,-48.00
2018-04-02T09:03:52.432Z,-49.00
2018-04-02T09:04:52.396Z,-48.00
2018-04-02T09:05:52.369Z,-53.00
2018-04-02T09:06:52.346Z,-54.00
2018-04-02T09:07:52.330Z,-53.00
2018-04-02T09:08:52.295Z,-52.00
2018-04-02T09:09:52.267Z,-54.00
2018-04-02T09:10:52.241Z,-54.00
2018-04-02T09:11:52.221Z,-51.00
2018-04-02T09:12:52.192Z,-51.00
2018-04-02T09:13:52.164Z,-51.00
2018-04-02T09:14:52.144Z,-50.00
2018-04-02T09:15:52.116Z,-51.00
2018-04-02T09:16:52.097Z,-50.00
2018-04-02T09:17:52.062Z,-53.00
2018-04-02T09:18:52.045Z,-50.00
2018-04-02T09:19:52.023Z,-50.00
2018-04-02T09:20:52.100Z,-50.00
2018-04-02T09:21:51.962Z,-53.00
2018-04-02T09:22:51.936Z,-52.00
2018-04-02T09:23:51.906Z,-52.00
2018-04-02T09:24:51.911Z,-50.00
2018-04-02T09:25:51.858Z,-52.00
2018-04-02T09:26:51.831Z,-52.00
2018-04-02T09:27:51.808Z,-47.00
2018-04-02T09:28:51.778Z,-45.00
2018-04-02T09:29:51.757Z,-49.00
2018-04-02T09:30:51.727Z,-48.00
2018-04-02T09:31:51.702Z,-50.00
2018-04-02T09:32:51.676Z,-48.00
2018-04-02T09:33:51.654Z,-47.00
2018-04-02T09:34:51.626Z,-47.00
2018-04-02T09:35:51.600Z,-47.00
2018-04-02T09:36:51.574Z,-48.00
2018-04-02T09:37:51.545Z,-47.00
2018-04-02T09:38:51.523Z,-48.00
2018-04-02T09:39:51.496Z,-52.00
2018-04-02T09:40:51.468Z,-48.00
2018-04-02T09:41:51.447Z,-51.00
2018-04-02T09:42:51.428Z,-54.00
2018-04-02T09:43:51.393Z,-49.00
2018-04-02T09:44:51.364Z,-50.00
2018-04-02T09:45:51.352Z,-49.00
2018-04-02T09:46:51.314Z,-49.00
2018-04-02T09:47:51.285Z,-49.00
2018-04-02T09:48:51.262Z,-50.00
2018-04-02T09:49:51.240Z,-50.00
2018-04-02T09:50:51.216Z,-49.00
2018-04-02T09:51:51.186Z,-49.00
2018-04-02T09:52:51.163Z,-49.00
2018-04-02T09:53:51.136Z,-48.00
2018-04-02T09:54:51.134Z,-51.00
2018-04-02T09:55:51.080Z,-50.00
2018-04-02T09:56:51.068Z,-50.00
2018-04-02T09:57:51.048Z,-49.00
2018-04-02T09:58:51.008Z,-50.00
2018-04-02T09:59:50.985Z,-50.00
2018-04-02T10:00:50.961Z,-51.00
2018-04-02T10:01:50.929Z,-52.00
2018-04-02T10:02:50.906Z,-52.00
2018-04-02T10:03:50.881Z,-52.00
2018-04-02T10:04:50.940Z,-52.00
2018-04-02T10:05:50.822Z,-53.00
2018-04-02T10:06:50.802Z,-52.00
2018-04-02T10:07:50.779Z,-51.00
2018-04-02T10:08:50.749Z,-51.00
2018-04-02T10:09:50.779Z,-51.00
2018-04-02T10:10:50.731Z,-50.00
2018-04-02T10:11:50.674Z,-50.00
2018-04-02T10:12:50.649Z,-50.00
2018-04-02T10:13:50.619Z,-50.00
2018-04-02T10:14:50.597Z,-50.00
2018-04-02T10:15:50.576Z,-51.00
2018-04-02T10:16:50.553Z,-50.00
2018-04-02T10:17:50.530Z,-50.00
2018-04-02T10:18:50.493Z,-50.00
2018-04-02T10:19:50.472Z,-50.00
2018-04-02T10:20:50.440Z,-50.00
2018-04-02T10:21:50.410Z,-50.00
2018-04-02T10:22:50.391Z,-50.00
2018-04-02T10:23:50.402Z,-50.00
2018-04-02T10:24:50.351Z,-50.00
2018-04-02T10:25:50.311Z,-51.00
2018-04-02T10:26:50.290Z,-51.00
2018-04-02T10:27:50.266Z,-50.00
2018-04-02T10:28:50.236Z,-50.00
2018-04-02T10:29:50.245Z,-50.00
2018-04-02T10:30:50.184Z,-51.00
2018-04-02T10:31:50.157Z,-51.00
2018-04-02T10:32:50.133Z,-50.00
2018-04-02T10:33:50.104Z,-50.00
2018-04-02T10:34:50.080Z,-50.00
2018-04-02T10:35:50.056Z,-50.00
2018-04-02T10:36:50.035Z,-50.00
2018-04-02T10:37:50.007Z,-50.00
2018-04-02T10:38:49.980Z,-51.00
2018-04-02T10:39:49.958Z,-50.00
2018-04-02T10:40:49.930Z,-50.00
2018-04-02T10:41:49.905Z,-50.00
2018-04-02T10:42:49.884Z,-51.00
2018-04-02T10:43:49.850Z,-51.00
2018-04-02T10:44:49.826Z,-50.00
2018-04-02T10:45:49.805Z,-51.00
2018-04-02T10:46:49.777Z,-51.00
2018-04-02T10:47:49.744Z,-51.00
2018-04-02T10:48:49.719Z,-51.00
2018-04-02T10:49:49.699Z,-51.00
2018-04-02T10:50:49.676Z,-51.00
2018-04-02T10:51:49.644Z,-51.00
2018-04-02T10:52:49.622Z,-51.00
2018-04-02T10:53:49.635Z,-51.00
2018-04-02T10:54:49.604Z,-50.00
2018-04-02T10:55:49.539Z,-50.00
2018-04-02T10:56:49.515Z,-50.00
2018-04-02T10:57:49.495Z,-50.00
2018-04-02T10:58:49.469Z,-51.00
2018-04-02T10:59:49.465Z,-51.00
2018-04-02T11:00:49.418Z,-51.00
2018-04-02T11:01:49.396Z,-51.00
2018-04-02T11:02:49.362Z,-51.00
2018-04-02T11:03:49.339Z,-50.00
2018-04-02T11:04:49.312Z,-51.00
2018-04-02T11:05:49.294Z,-50.00
2018-04-02T11:06:49.258Z,-51.00
2018-04-02T11:07:49.240Z,-51.00
2018-04-02T11:08:49.213Z,-50.00
2018-04-02T11:09:49.213Z,-50.00
2018-04-02T11:10:49.157Z,-50.00
2018-04-02T11:11:49.135Z,-50.00
2018-04-02T11:12:49.108Z,-50.00
2018-04-02T11:13:49.082Z,-50.00
2018-04-02T11:14:49.058Z,-50.00
2018-04-02T11:15:49.031Z,-50.00
2018-04-02T11:16:49.003Z,-50.00
2018-04-02T11:17:49.003Z,-51.00
2018-04-02T11:18:48.952Z,-50.00
2018-04-02T11:19:48.930Z,-51.00
2018-04-02T11:20:48.902Z,-50.00
2018-04-02T11:21:48.871Z,-50.00
2018-04-02T11:22:48.850Z,-50.00
2018-04-02T11:23:48.902Z,-51.00
2018-04-02T11:24:48.816Z,-50.00
2018-04-02T11:25:48.770Z,-50.00
2018-04-02T11:26:48.748Z,-50.00
2018-04-02T11:27:48.727Z,-50.00
2018-04-02T11:28:48.699Z,-50.00
2018-04-02T11:29:48.687Z,-50.00
2018-04-02T11:30:48.641Z,-50.00
2018-04-02T11:31:48.611Z,-48.00
2018-04-02T11:32:48.594Z,-50.00
2018-04-02T11:33:48.567Z,-50.00
2018-04-02T11:34:48.537Z,-50.00
2018-04-02T11:35:48.537Z,-50.00
2018-04-02T11:36:48.484Z,-50.00
2018-04-02T11:37:48.461Z,-50.00
2018-04-02T11:38:48.445Z,-52.00
2018-04-02T11:39:48.415Z,-52.00
2018-04-02T11:40:48.388Z,-51.00
2018-04-02T11:41:48.358Z,-52.00
2018-04-02T11:42:48.334Z,-53.00
2018-04-02T11:43:48.313Z,-52.00
2018-04-02T11:44:48.287Z,-54.00
2018-04-02T11:45:48.261Z,-52.00
2018-04-02T11:46:48.232Z,-55.00
2018-04-02T11:47:48.204Z,-55.00
2018-04-02T11:48:48.181Z,-56.00
2018-04-02T11:49:48.154Z,-51.00
2018-04-02T11:50:48.128Z,-54.00
2018-04-02T11:51:48.095Z,-52.00
2018-04-02T11:52:48.077Z,-55.00
2018-04-02T11:53:48.049Z,-53.00
2018-04-02T11:54:48.023Z,-51.00
2018-04-02T11:55:48.014Z,-51.00
2018-04-02T11:56:47.969Z,-56.00
2018-04-02T11:57:47.945Z,-54.00
2018-04-02T11:58:47.918Z,-51.00
2018-04-02T11:59:47.893Z,-53.00
2018-04-02T12:00:47.869Z,-49.00
2018-04-02T12:01:47.843Z,-50.00
2018-04-02T12:02:47.819Z,-50.00
2018-04-02T12:03:47.785Z,-51.00
2018-04-02T12:04:47.761Z,-53.00
2018-04-02T12:05:47.737Z,-51.00
2018-04-02T12:06:47.718Z,-49.00
2018-04-02T12:07:47.685Z,-50.00
2018-04-02T12:08:47.668Z,-52.00
2018-04-02T12:09:47.635Z,-53.00
2018-04-02T12:10:47.611Z,-52.00
2018-04-02T12:11:47.581Z,-52.00
2018-04-02T12:12:47.558Z,-52.00
2018-04-02T12:13:47.529Z,-53.00
2018-04-02T12:14:47.572Z,-59.00
2018-04-02T12:15:47.539Z,-53.00
2018-04-02T12:16:47.455Z,-56.00
2018-04-02T12:17:47.437Z,-57.00
2018-04-02T12:18:47.405Z,-57.00
2018-04-02T12:19:47.377Z,-57.00
2018-04-02T12:20:47.370Z,-57.00
2018-04-02T12:21:47.331Z,-57.00
2018-04-02T12:22:47.297Z,-58.00
2018-04-02T12:23:47.288Z,-59.00
2018-04-02T12:24:47.258Z,-57.00
2018-04-02T12:25:47.221Z,-57.00
2018-04-02T12:26:47.197Z,-57.00
2018-04-02T12:27:47.191Z,-57.00